Chemical Voyager — 9HA4488 — position and weather

sailwx.info

Track history (hours):
 
Tides and Currents Weather Stations Pressure Air Temp Water Temp Dewpoint Dewpoint Depression Visibility Wind Speed Wind Dir Waves Ship Positions

Chemical Voyager

Last reported at 2017-Nov-19 00:08 UTC. Time now 2017-Nov-19 08:53 UTC.
Position N 36°24' W 008°56'.

Length 134 m; draft 8.4 m.

Type: Ship (hazmat cat A). MMSI: 248037000.

Date/timePositionNaut miles runAvg speedWind from/ knotsBaromVisibWave heightAir tempDewpointWater temp
2017-Nov-19 00:08N 36°24' W 008°56'312.5
2017-Nov-18 23:51N 36°25' W 009°00'512.3
2017-Nov-18 23:27N 36°27' W 009°06'611.9
2017-Nov-18 22:57N 36°28' W 009°13'712.1
2017-Nov-18 22:24N 36°30' W 009°21'512.7
2017-Nov-18 21:59N 36°34' W 009°26'612.5
2017-Nov-18 21:30N 36°39' W 009°31'712.6
2017-Nov-18 20:59N 36°44' W 009°36'612.0
2017-Nov-18 20:30N 36°49' W 009°39'1012.7
2017-Nov-18 19:41N 36°59' W 009°42'313.0
2017-Nov-18 19:28N 37°02' W 009°43'612.9
2017-Nov-18 19:00N 37°08' W 009°44'612.7
2017-Nov-18 18:30N 37°14' W 009°46'612.6
2017-Nov-18 18:00N 37°20' W 009°48'613.0
2017-Nov-18 17:30N 37°26' W 009°50'612.8
2017-Nov-18 17:00N 37°32' W 009°51'612.7
2017-Nov-18 16:30N 37°39' W 009°53'612.8
2017-Nov-18 16:00N 37°45' W 009°55'713.0
2017-Nov-18 15:30N 37°51' W 009°57'612.9
2017-Nov-18 15:00N 37°57' W 009°59'613.0
2017-Nov-18 14:30N 38°04' W 010°01'612.9
2017-Nov-18 14:00N 38°10' W 010°03'612.8
2017-Nov-18 13:30N 38°16' W 010°04'612.7
2017-Nov-18 13:00N 38°22' W 010°06'613.0
2017-Nov-18 12:30N 38°29' W 010°08'612.8
2017-Nov-18 12:00N 38°35' W 010°10'612.4
2017-Nov-18 11:31N 38°41' W 010°12'612.4
2017-Nov-18 11:00N 38°47' W 010°12'612.6
2017-Nov-18 10:30N 38°54' W 010°12'612.4
2017-Nov-18 10:00N 38°60' W 010°12'612.8
2017-Nov-18 09:30N 39°06' W 010°12'713.2
2017-Nov-18 09:01N 39°13' W 010°12'1013.0
2017-Nov-18 08:14N 39°23' W 010°12'313.3
2017-Nov-18 08:00N 39°26' W 010°12'713.2
2017-Nov-18 07:27N 39°33' W 010°12'812.6
2017-Nov-18 06:51N 39°41' W 010°12'612.5
2017-Nov-18 06:20N 39°47' W 010°12'412.6
2017-Nov-18 06:01N 39°51' W 010°12'612.7
2017-Nov-18 05:30N 39°58' W 010°12'1212.7
2017-Nov-18 04:36N 40°09' W 010°12'213.3
2017-Nov-18 04:29N 40°11' W 010°12'613.2
2017-Nov-18 04:00N 40°17' W 010°12'1413.2
2017-Nov-18 02:57N 40°31' W 010°12'613.2
2017-Nov-18 02:30N 40°37' W 010°12'713.1
2017-Nov-18 02:00N 40°43' W 010°12'713.1
2017-Nov-18 01:30N 40°50' W 010°12'612.8
2017-Nov-18 01:01N 40°56' W 010°12'612.9
2017-Nov-18 00:30N 41°03' W 010°12'713.1
2017-Nov-18 00:00N 41°09' W 010°12'612.8
2017-Nov-17 23:30N 41°16' W 010°12'812.4
2017-Nov-17 22:52N 41°24' W 010°12'37912.4
2017-Nov-16 16:19N 47°19' W 007°06'912.3
2017-Nov-16 15:35N 47°27' W 006°60'212.0
2017-Nov-16 15:27N 47°28' W 006°58'712.2
2017-Nov-16 14:53N 47°34' W 006°53'912.1
2017-Nov-16 14:10N 47°42' W 006°47'212.1
2017-Nov-16 14:00N 47°43' W 006°46'611.6
2017-Nov-16 13:28N 47°49' W 006°41'711.4
2017-Nov-16 12:52N 47°55' W 006°37'411.4
2017-Nov-16 12:29N 47°59' W 006°34'611.6
2017-Nov-16 11:57N 48°04' W 006°29'611.6
2017-Nov-16 11:28N 48°09' W 006°25'611.9
2017-Nov-16 10:58N 48°14' W 006°20'712.4
2017-Nov-16 10:23N 48°20' W 006°15'612.8
2017-Nov-16 09:57N 48°25' W 006°11'1013.3
2017-Nov-16 09:10N 48°35' W 006°04'413.7
2017-Nov-16 08:52N 48°38' W 006°01'513.9
2017-Nov-16 08:30N 48°43' W 005°57'914.0
2017-Nov-16 07:52N 48°50' W 005°50'613.5
2017-Nov-16 07:24N 48°55' W 005°44'613.5
2017-Nov-16 06:59N 48°58' W 005°36'613.2
2017-Nov-16 06:30N 49°01' W 005°28'611.3
2017-Nov-16 06:00N 49°03' W 005°20'611.7
2017-Nov-16 05:30N 49°06' W 005°13'612.0
2017-Nov-16 05:00N 49°10' W 005°05'611.5
2017-Nov-16 04:26N 49°13' W 004°57'511.2
2017-Nov-16 04:00N 49°16' W 004°50'1011.4
2017-Nov-16 03:09N 49°21' W 004°38'411.2
2017-Nov-16 02:45N 49°24' W 004°32'711.4
2017-Nov-16 02:09N 49°27' W 004°23'211.7
2017-Nov-16 01:56N 49°29' W 004°20'511.7
2017-Nov-16 01:29N 49°32' W 004°13'612.0
2017-Nov-16 01:00N 49°35' W 004°06'612.5
2017-Nov-16 00:30N 49°38' W 003°58'612.9
2017-Nov-16 00:00N 49°42' W 003°50'713.4
2017-Nov-15 23:30N 49°46' W 003°41'713.8
2017-Nov-15 23:00N 49°49' W 003°32'714.1
2017-Nov-15 22:30N 49°53' W 003°23'713.7
2017-Nov-15 22:01N 49°56' W 003°13'713.8
2017-Nov-15 21:30N 49°58' W 003°03'713.3
2017-Nov-15 21:00N 49°59' W 002°53'712.9
2017-Nov-15 20:28N 50°01' W 002°43'612.2
2017-Nov-15 19:57N 50°03' W 002°33'1910.7
2017-Nov-15 18:13N 50°07' W 002°05'2 9.7
2017-Nov-15 17:59N 50°08' W 002°02'5 9.6
2017-Nov-15 17:30N 50°09' W 001°55'5 9.8
2017-Nov-15 17:01N 50°10' W 001°47'510.3
2017-Nov-15 16:30N 50°11' W 001°40'510.8
2017-Nov-15 16:00N 50°13' W 001°32'611.4
2017-Nov-15 15:30N 50°14' W 001°23'612.1
2017-Nov-15 15:00N 50°16' W 001°14'4114.3
2017-Nov-15 12:07N 50°27' W 000°12'214.1
2017-Nov-15 12:01N 50°28' W 000°09'714.0
2017-Nov-15 11:30N 50°30' E 000°01'713.9
2017-Nov-15 11:00N 50°31' E 000°12'713.6
2017-Nov-15 10:30N 50°33' E 000°22'713.2
2017-Nov-15 10:01N 50°35' E 000°32'612.6
2017-Nov-15 09:31N 50°39' E 000°41'612.2
2017-Nov-15 09:01N 50°42' E 000°49'611.8
2017-Nov-15 08:30N 50°46' E 000°55'611.8
2017-Nov-15 08:00N 50°50' E 001°02'1712.4
2017-Nov-15 06:38N 51°02' E 001°22'214.0
2017-Nov-15 06:30N 51°03' E 001°24'714.8
2017-Nov-15 06:00N 51°07' E 001°34'714.9
2017-Nov-15 05:30N 51°12' E 001°43'714.5
2017-Nov-15 05:00N 51°18' E 001°49'714.2
2017-Nov-15 04:30N 51°24' E 001°55'612.1
2017-Nov-15 04:00N 51°25' E 002°05'612.5
2017-Nov-15 03:30N 51°22' E 002°13'612.0
2017-Nov-15 02:59N 51°22' E 002°23'612.4
2017-Nov-15 02:29N 51°23' E 002°33'612.0
2017-Nov-15 01:57N 51°23' E 002°43'4 9.9
2017-Nov-15 01:30N 51°22' E 002°50'510.3
2017-Nov-15 01:00N 51°23' E 002°58'5 9.6
2017-Nov-15 00:30N 51°24' E 003°06'510.1
2017-Nov-15 00:00N 51°25' E 003°14'510.0
2017-Nov-14 23:30N 51°25' E 003°22'510.0
2017-Nov-14 23:00N 51°25' E 003°30'5 9.4
2017-Nov-14 22:30N 51°26' E 003°37'4 7.4
2017-Nov-14 22:00N 51°25' E 003°43'4 8.6
2017-Nov-14 21:30N 51°21' E 003°47'4 8.2
2017-Nov-14 21:00N 51°21' E 003°54'4 8.2
2017-Nov-14 20:30N 51°25' E 003°58'3 5.5
2017-Nov-14 20:00N 51°25' E 004°02'4 7.6
2017-Nov-14 19:30N 51°22' E 004°06'4 8.5
2017-Nov-14 19:01N 51°24' E 004°13'4 7.7
2017-Nov-14 18:30N 51°21' E 004°17'0 0.6
2017-Nov-14 18:00N 51°21' E 004°17'0 0.0
2017-Nov-14 17:30N 51°21' E 004°17'0 0.5
2017-Nov-14 17:00N 51°21' E 004°18'1 1.1
2017-Nov-14 16:30N 51°20' E 004°18'3 5.8
2017-Nov-14 16:00N 51°18' E 004°20'2 5.0
2017-Nov-14 15:30N 51°15' E 004°22'1 1.2
2017-Nov-14 15:00N 51°15' E 004°23'0 0.0
2017-Nov-14 14:30N 51°15' E 004°23'0 0.0
2017-Nov-14 14:00N 51°15' E 004°23'0 0.0
2017-Nov-14 13:30N 51°15' E 004°23'0 0.0
2017-Nov-14 13:00N 51°15' E 004°23'0 0.0
2017-Nov-14 12:27N 51°15' E 004°23'0 0.0
2017-Nov-14 11:42N 51°15' E 004°23'0 0.0
2017-Nov-14 11:24N 51°15' E 004°23'0 0.0
2017-Nov-14 11:00N 51°15' E 004°23'0 0.0
2017-Nov-14 10:27N 51°15' E 004°23'0 0.0
2017-Nov-14 10:00N 51°15' E 004°23'0 0.0
2017-Nov-14 09:30N 51°15' E 004°23'0 0.0
2017-Nov-14 09:00N 51°15' E 004°23'0 0.0
2017-Nov-14 08:30N 51°15' E 004°23'0 0.0
2017-Nov-14 08:00N 51°15' E 004°23'0 0.0
2017-Nov-14 07:30N 51°15' E 004°23'0 0.0
2017-Nov-14 07:00N 51°15' E 004°23'0 0.0
2017-Nov-14 06:24N 51°15' E 004°23'0 0.0
2017-Nov-14 06:00N 51°15' E 004°23'0 0.0
2017-Nov-14 05:24N 51°15' E 004°23'0 0.0
2017-Nov-14 05:00N 51°15' E 004°23'0 0.0
2017-Nov-14 04:30N 51°15' E 004°23'0 0.0
2017-Nov-14 04:00N 51°15' E 004°23'0 0.0
2017-Nov-14 03:30N 51°15' E 004°23'0 0.0
2017-Nov-14 03:00N 51°15' E 004°23'0 0.0
2017-Nov-14 02:30N 51°15' E 004°23'0 0.0
2017-Nov-14 02:00N 51°15' E 004°23'0 0.0
2017-Nov-14 01:30N 51°15' E 004°23'0 0.0
2017-Nov-14 01:00N 51°15' E 004°23'0 0.0
2017-Nov-14 00:30N 51°15' E 004°23'0 0.0
2017-Nov-14 00:00N 51°15' E 004°23'0 0.0
2017-Nov-13 23:27N 51°15' E 004°23'0 0.0
2017-Nov-13 23:00N 51°15' E 004°23'0 0.0
2017-Nov-13 22:30N 51°15' E 004°23'0 0.0
2017-Nov-13 22:00N 51°15' E 004°23'1 0.0
2017-Nov-13 02:00N 51°16' E 004°22'0 0.0
2017-Nov-13 01:27N 51°16' E 004°22'0 0.0
2017-Nov-13 01:00N 51°16' E 004°22'0 0.0
2017-Nov-13 00:27N 51°16' E 004°22'0 0.0
2017-Nov-13 00:00N 51°16' E 004°22'0 0.0
2017-Nov-12 23:30N 51°16' E 004°22'0 0.0
2017-Nov-12 22:54N 51°16' E 004°22'0 0.0
2017-Nov-12 22:30N 51°16' E 004°22'0 0.0
2017-Nov-12 22:00N 51°16' E 004°22'0 0.0
2017-Nov-12 21:30N 51°16' E 004°22'0 0.0
2017-Nov-12 20:57N 51°16' E 004°22'0 0.0
2017-Nov-12 20:30N 51°16' E 004°22'0 0.0
2017-Nov-12 20:00N 51°16' E 004°22'0 0.0
2017-Nov-12 19:27N 51°16' E 004°22'0 0.0
2017-Nov-12 18:51N 51°16' E 004°22'0 0.0
2017-Nov-12 18:24N 51°16' E 004°22'0 0.0
2017-Nov-12 17:54N 51°16' E 004°22'0 0.0
2017-Nov-12 17:30N 51°16' E 004°22'0 0.0
2017-Nov-12 16:54N 51°16' E 004°22'0 0.0
2017-Nov-12 16:30N 51°16' E 004°22'0 0.0
2017-Nov-12 16:00N 51°16' E 004°22'0 0.0
2017-Nov-12 15:30N 51°16' E 004°22'0 0.0
2017-Nov-12 14:54N 51°16' E 004°22'0 0.0
2017-Nov-12 14:27N 51°16' E 004°22'0 0.0
2017-Nov-12 14:00N 51°16' E 004°22'0 0.0
2017-Nov-12 13:27N 51°16' E 004°22'0 0.0
2017-Nov-12 13:00N 51°16' E 004°22'0 0.0
2017-Nov-12 12:30N 51°16' E 004°22'0 0.0
2017-Nov-12 11:57N 51°16' E 004°22'0 0.0
2017-Nov-12 11:27N 51°16' E 004°22'0 0.0
2017-Nov-12 11:00N 51°16' E 004°22'0 0.0
2017-Nov-12 10:30N 51°16' E 004°22'0 0.0
2017-Nov-12 10:00N 51°16' E 004°22'0 0.0
2017-Nov-12 09:24N 51°16' E 004°22'0 0.0
2017-Nov-12 08:57N 51°16' E 004°22'0 0.0
2017-Nov-12 08:30N 51°16' E 004°22'0 0.0
2017-Nov-12 08:00N 51°16' E 004°22'0 0.0
2017-Nov-12 07:24N 51°16' E 004°22'0 0.0
2017-Nov-12 06:57N 51°16' E 004°22'0 0.0
2017-Nov-12 06:27N 51°16' E 004°22'0 0.0
2017-Nov-12 06:00N 51°16' E 004°22'0 0.0
2017-Nov-12 05:27N 51°16' E 004°22'0 0.0
2017-Nov-12 05:00N 51°16' E 004°22'0 0.0
2017-Nov-12 04:18N 51°16' E 004°22'0 0.0
2017-Nov-12 04:00N 51°16' E 004°22'0 0.0
2017-Nov-12 03:30N 51°16' E 004°22'0 0.0
2017-Nov-12 03:00N 51°16' E 004°22'0 0.0
2017-Nov-12 02:27N 51°16' E 004°22'1 2.1
2017-Nov-12 02:00N 51°16' E 004°21'3 5.4
2017-Nov-12 01:30N 51°19' E 004°19'1 2.4
2017-Nov-12 01:00N 51°20' E 004°18'0 0.0
2017-Nov-12 00:21N 51°20' E 004°18'0 0.0
2017-Nov-11 23:51N 51°20' E 004°18'0 0.0
2017-Nov-11 23:21N 51°20' E 004°18'0 0.0
2017-Nov-11 23:00N 51°20' E 004°18'0 0.0
2017-Nov-11 22:30N 51°20' E 004°18'0 0.0
2017-Nov-11 21:54N 51°20' E 004°18'0 0.0
2017-Nov-11 21:30N 51°20' E 004°18'0 0.0
2017-Nov-11 21:00N 51°20' E 004°18'0 0.0
2017-Nov-11 20:24N 51°20' E 004°18'0 0.0
2017-Nov-11 19:54N 51°20' E 004°18'0 0.0
2017-Nov-11 19:27N 51°20' E 004°18'0 0.0
2017-Nov-11 19:00N 51°20' E 004°18'0 0.0
2017-Nov-11 18:30N 51°20' E 004°18'0 0.7
2017-Nov-11 18:00N 51°19' E 004°19'3 6.0
2017-Nov-11 17:30N 51°17' E 004°21'1 2.9
2017-Nov-11 17:00N 51°16' E 004°22'0 0.0
2017-Nov-11 16:24N 51°16' E 004°22'0 0.0
2017-Nov-11 16:00N 51°16' E 004°22'0 0.0
2017-Nov-11 15:27N 51°16' E 004°22'0 0.0
2017-Nov-11 14:57N 51°16' E 004°22'0 0.0
2017-Nov-11 14:30N 51°16' E 004°22'0 0.0
2017-Nov-11 14:00N 51°16' E 004°22'0 0.0
2017-Nov-11 13:30N 51°16' E 004°22'0 0.0
2017-Nov-11 13:00N 51°16' E 004°22'0 0.0
2017-Nov-11 12:30N 51°16' E 004°22'0 0.0
2017-Nov-11 12:00N 51°16' E 004°22'0 0.0
2017-Nov-11 11:30N 51°16' E 004°22'0 0.0
2017-Nov-11 10:51N 51°16' E 004°22'0 0.0
2017-Nov-11 10:27N 51°16' E 004°22'0 0.0
2017-Nov-11 09:57N 51°16' E 004°22'0 0.1
2017-Nov-11 09:31N 51°16' E 004°22'2 4.1
2017-Nov-11 09:01N 51°17' E 004°20'2 3.9
2017-Nov-11 08:31N 51°19' E 004°19'0 0.2
2017-Nov-11 07:51N 51°19' E 004°18'0 0.0
2017-Nov-11 05:54N 51°19' E 004°18'0 0.0
2017-Nov-11 03:03N 51°19' E 004°18'0 0.0
2017-Nov-11 03:00N 51°19' E 004°18'0 0.0
2017-Nov-10 22:03N 51°19' E 004°18'0 0.0
2017-Nov-10 15:15N 51°19' E 004°18'0 0.0
2017-Nov-10 14:51N 51°19' E 004°18'0 0.0
2017-Nov-10 14:27N 51°19' E 004°18'0 0.0
2017-Nov-10 13:03N 51°19' E 004°18'0 0.1
2017-Nov-10 12:57N 51°19' E 004°18'0 0.0
2017-Nov-10 11:03N 51°19' E 004°18'0 0.0
2017-Nov-10 10:48N 51°19' E 004°18'0 0.0
2017-Nov-10 10:18N 51°19' E 004°18'0 0.0
2017-Nov-10 09:57N 51°19' E 004°18'0 0.0
2017-Nov-10 07:51N 51°19' E 004°18'0 0.0
2017-Nov-10 05:57N 51°19' E 004°18'0 0.0
2017-Nov-10 05:27N 51°19' E 004°18'0 0.0
2017-Nov-10 04:21N 51°19' E 004°18'0 0.0
2017-Nov-10 03:45N 51°19' E 004°18'0 0.0
2017-Nov-10 03:27N 51°19' E 004°18'0 0.0
2017-Nov-10 02:51N 51°19' E 004°18'0 0.0
2017-Nov-10 02:27N 51°19' E 004°18'0 0.0
2017-Nov-10 01:51N 51°19' E 004°18'0 0.0
2017-Nov-10 01:27N 51°19' E 004°18'0 0.0
2017-Nov-10 00:57N 51°19' E 004°18'0 0.0
2017-Nov-10 00:15N 51°19' E 004°18'0 0.0
2017-Nov-09 20:51N 51°19' E 004°18'0 0.0
2017-Nov-09 20:27N 51°19' E 004°18'0 0.0
2017-Nov-09 19:03N 51°19' E 004°18'0 0.0
2017-Nov-09 18:45N 51°19' E 004°18'0 0.0
2017-Nov-09 18:27N 51°19' E 004°18'0 0.0
2017-Nov-09 17:48N 51°19' E 004°18'0 0.0
2017-Nov-09 17:27N 51°19' E 004°18'0 0.0
2017-Nov-09 16:51N 51°19' E 004°18'0 0.0
2017-Nov-09 16:24N 51°19' E 004°18'0 0.0
2017-Nov-09 15:24N 51°19' E 004°18'0 0.0
2017-Nov-09 13:57N 51°19' E 004°18'0 0.0
2017-Nov-09 13:27N 51°19' E 004°18'0 0.0
2017-Nov-09 12:51N 51°19' E 004°18'0 0.0
2017-Nov-09 11:36N 51°19' E 004°18'0 0.0
2017-Nov-09 11:27N 51°19' E 004°18'0 0.0
2017-Nov-09 10:15N 51°19' E 004°18'0 0.0
2017-Nov-09 04:18N 51°19' E 004°18'0 0.0
2017-Nov-09 03:42N 51°19' E 004°18'0 0.0
2017-Nov-09 03:30N 51°19' E 004°18'2 3.2
2017-Nov-09 03:00N 51°20' E 004°18'1 1.1
2017-Nov-09 02:30N 51°21' E 004°17'0 0.0
2017-Nov-09 02:00N 51°21' E 004°17'2 3.5
2017-Nov-09 01:30N 51°21' E 004°14'3 6.7
2017-Nov-09 01:00N 51°23' E 004°10'510.0
2017-Nov-09 00:30N 51°24' E 004°02'  
Track history (hours):
 
Tides and Currents Weather Stations Pressure Air Temp Water Temp Dewpoint Dewpoint Depression Visibility Wind Speed Wind Dir Waves Ship Positions

Chemical Voyager

Last reported at 2017-Nov-19 00:08 UTC. Time now 2017-Nov-19 08:53 UTC.
Position N 36°24' W 008°56'.

Length 134 m; draft 8.4 m.

Type: Ship (hazmat cat A). MMSI: 248037000.

Date/timePositionNaut miles runAvg speedWind from/ knotsBaromVisibWave heightAir tempDewpointWater temp
2017-Nov-19 00:08N 36°24' W 008°56'312.5
2017-Nov-18 23:51N 36°25' W 009°00'512.3
2017-Nov-18 23:27N 36°27' W 009°06'611.9
2017-Nov-18 22:57N 36°28' W 009°13'712.1
2017-Nov-18 22:24N 36°30' W 009°21'512.7
2017-Nov-18 21:59N 36°34' W 009°26'612.5
2017-Nov-18 21:30N 36°39' W 009°31'712.6
2017-Nov-18 20:59N 36°44' W 009°36'612.0
2017-Nov-18 20:30N 36°49' W 009°39'1012.7
2017-Nov-18 19:41N 36°59' W 009°42'313.0
2017-Nov-18 19:28N 37°02' W 009°43'612.9
2017-Nov-18 19:00N 37°08' W 009°44'612.7
2017-Nov-18 18:30N 37°14' W 009°46'612.6
2017-Nov-18 18:00N 37°20' W 009°48'613.0
2017-Nov-18 17:30N 37°26' W 009°50'612.8
2017-Nov-18 17:00N 37°32' W 009°51'612.7
2017-Nov-18 16:30N 37°39' W 009°53'612.8
2017-Nov-18 16:00N 37°45' W 009°55'713.0
2017-Nov-18 15:30N 37°51' W 009°57'612.9
2017-Nov-18 15:00N 37°57' W 009°59'613.0
2017-Nov-18 14:30N 38°04' W 010°01'612.9
2017-Nov-18 14:00N 38°10' W 010°03'612.8
2017-Nov-18 13:30N 38°16' W 010°04'612.7
2017-Nov-18 13:00N 38°22' W 010°06'613.0
2017-Nov-18 12:30N 38°29' W 010°08'612.8
2017-Nov-18 12:00N 38°35' W 010°10'612.4
2017-Nov-18 11:31N 38°41' W 010°12'612.4
2017-Nov-18 11:00N 38°47' W 010°12'612.6
2017-Nov-18 10:30N 38°54' W 010°12'612.4
2017-Nov-18 10:00N 38°60' W 010°12'612.8
2017-Nov-18 09:30N 39°06' W 010°12'713.2
2017-Nov-18 09:01N 39°13' W 010°12'1013.0
2017-Nov-18 08:14N 39°23' W 010°12'313.3
2017-Nov-18 08:00N 39°26' W 010°12'713.2
2017-Nov-18 07:27N 39°33' W 010°12'812.6
2017-Nov-18 06:51N 39°41' W 010°12'612.5
2017-Nov-18 06:20N 39°47' W 010°12'412.6
2017-Nov-18 06:01N 39°51' W 010°12'612.7
2017-Nov-18 05:30N 39°58' W 010°12'1212.7
2017-Nov-18 04:36N 40°09' W 010°12'213.3
2017-Nov-18 04:29N 40°11' W 010°12'613.2
2017-Nov-18 04:00N 40°17' W 010°12'1413.2
2017-Nov-18 02:57N 40°31' W 010°12'613.2
2017-Nov-18 02:30N 40°37' W 010°12'713.1
2017-Nov-18 02:00N 40°43' W 010°12'713.1
2017-Nov-18 01:30N 40°50' W 010°12'612.8
2017-Nov-18 01:01N 40°56' W 010°12'612.9
2017-Nov-18 00:30N 41°03' W 010°12'713.1
2017-Nov-18 00:00N 41°09' W 010°12'612.8
2017-Nov-17 23:30N 41°16' W 010°12'812.4
2017-Nov-17 22:52N 41°24' W 010°12'37912.4
2017-Nov-16 16:19N 47°19' W 007°06'912.3
2017-Nov-16 15:35N 47°27' W 006°60'212.0
2017-Nov-16 15:27N 47°28' W 006°58'712.2
2017-Nov-16 14:53N 47°34' W 006°53'912.1
2017-Nov-16 14:10N 47°42' W 006°47'212.1
2017-Nov-16 14:00N 47°43' W 006°46'611.6
2017-Nov-16 13:28N 47°49' W 006°41'711.4
2017-Nov-16 12:52N 47°55' W 006°37'411.4
2017-Nov-16 12:29N 47°59' W 006°34'611.6
2017-Nov-16 11:57N 48°04' W 006°29'611.6
2017-Nov-16 11:28N 48°09' W 006°25'611.9
2017-Nov-16 10:58N 48°14' W 006°20'712.4
2017-Nov-16 10:23N 48°20' W 006°15'612.8
2017-Nov-16 09:57N 48°25' W 006°11'1013.3
2017-Nov-16 09:10N 48°35' W 006°04'413.7
2017-Nov-16 08:52N 48°38' W 006°01'513.9
2017-Nov-16 08:30N 48°43' W 005°57'914.0
2017-Nov-16 07:52N 48°50' W 005°50'613.5
2017-Nov-16 07:24N 48°55' W 005°44'613.5
2017-Nov-16 06:59N 48°58' W 005°36'613.2
2017-Nov-16 06:30N 49°01' W 005°28'611.3
2017-Nov-16 06:00N 49°03' W 005°20'611.7
2017-Nov-16 05:30N 49°06' W 005°13'612.0
2017-Nov-16 05:00N 49°10' W 005°05'611.5
2017-Nov-16 04:26N 49°13' W 004°57'511.2
2017-Nov-16 04:00N 49°16' W 004°50'1011.4
2017-Nov-16 03:09N 49°21' W 004°38'411.2
2017-Nov-16 02:45N 49°24' W 004°32'711.4
2017-Nov-16 02:09N 49°27' W 004°23'211.7
2017-Nov-16 01:56N 49°29' W 004°20'511.7
2017-Nov-16 01:29N 49°32' W 004°13'612.0
2017-Nov-16 01:00N 49°35' W 004°06'612.5
2017-Nov-16 00:30N 49°38' W 003°58'612.9
2017-Nov-16 00:00N 49°42' W 003°50'713.4
2017-Nov-15 23:30N 49°46' W 003°41'713.8
2017-Nov-15 23:00N 49°49' W 003°32'714.1
2017-Nov-15 22:30N 49°53' W 003°23'713.7
2017-Nov-15 22:01N 49°56' W 003°13'713.8
2017-Nov-15 21:30N 49°58' W 003°03'713.3
2017-Nov-15 21:00N 49°59' W 002°53'712.9
2017-Nov-15 20:28N 50°01' W 002°43'612.2
2017-Nov-15 19:57N 50°03' W 002°33'1910.7
2017-Nov-15 18:13N 50°07' W 002°05'2 9.7
2017-Nov-15 17:59N 50°08' W 002°02'5 9.6
2017-Nov-15 17:30N 50°09' W 001°55'5 9.8
2017-Nov-15 17:01N 50°10' W 001°47'510.3
2017-Nov-15 16:30N 50°11' W 001°40'510.8
2017-Nov-15 16:00N 50°13' W 001°32'611.4
2017-Nov-15 15:30N 50°14' W 001°23'612.1
2017-Nov-15 15:00N 50°16' W 001°14'4114.3
2017-Nov-15 12:07N 50°27' W 000°12'214.1
2017-Nov-15 12:01N 50°28' W 000°09'714.0
2017-Nov-15 11:30N 50°30' E 000°01'713.9
2017-Nov-15 11:00N 50°31' E 000°12'713.6
2017-Nov-15 10:30N 50°33' E 000°22'713.2
2017-Nov-15 10:01N 50°35' E 000°32'612.6
2017-Nov-15 09:31N 50°39' E 000°41'612.2
2017-Nov-15 09:01N 50°42' E 000°49'611.8
2017-Nov-15 08:30N 50°46' E 000°55'611.8
2017-Nov-15 08:00N 50°50' E 001°02'1712.4
2017-Nov-15 06:38N 51°02' E 001°22'214.0
2017-Nov-15 06:30N 51°03' E 001°24'714.8
2017-Nov-15 06:00N 51°07' E 001°34'714.9
2017-Nov-15 05:30N 51°12' E 001°43'714.5
2017-Nov-15 05:00N 51°18' E 001°49'714.2
2017-Nov-15 04:30N 51°24' E 001°55'612.1
2017-Nov-15 04:00N 51°25' E 002°05'612.5
2017-Nov-15 03:30N 51°22' E 002°13'612.0
2017-Nov-15 02:59N 51°22' E 002°23'612.4
2017-Nov-15 02:29N 51°23' E 002°33'612.0
2017-Nov-15 01:57N 51°23' E 002°43'4 9.9
2017-Nov-15 01:30N 51°22' E 002°50'510.3
2017-Nov-15 01:00N 51°23' E 002°58'5 9.6
2017-Nov-15 00:30N 51°24' E 003°06'510.1
2017-Nov-15 00:00N 51°25' E 003°14'510.0
2017-Nov-14 23:30N 51°25' E 003°22'510.0
2017-Nov-14 23:00N 51°25' E 003°30'5 9.4
2017-Nov-14 22:30N 51°26' E 003°37'4 7.4
2017-Nov-14 22:00N 51°25' E 003°43'4 8.6
2017-Nov-14 21:30N 51°21' E 003°47'4 8.2
2017-Nov-14 21:00N 51°21' E 003°54'4 8.2
2017-Nov-14 20:30N 51°25' E 003°58'3 5.5
2017-Nov-14 20:00N 51°25' E 004°02'4 7.6
2017-Nov-14 19:30N 51°22' E 004°06'4 8.5
2017-Nov-14 19:01N 51°24' E 004°13'4 7.7
2017-Nov-14 18:30N 51°21' E 004°17'0 0.6
2017-Nov-14 18:00N 51°21' E 004°17'0 0.0
2017-Nov-14 17:30N 51°21' E 004°17'0 0.5
2017-Nov-14 17:00N 51°21' E 004°18'1 1.1
2017-Nov-14 16:30N 51°20' E 004°18'3 5.8
2017-Nov-14 16:00N 51°18' E 004°20'2 5.0
2017-Nov-14 15:30N 51°15' E 004°22'1 1.2
2017-Nov-14 15:00N 51°15' E 004°23'0 0.0
2017-Nov-14 14:30N 51°15' E 004°23'0 0.0
2017-Nov-14 14:00N 51°15' E 004°23'0 0.0
2017-Nov-14 13:30N 51°15' E 004°23'0 0.0
2017-Nov-14 13:00N 51°15' E 004°23'0 0.0
2017-Nov-14 12:27N 51°15' E 004°23'0 0.0
2017-Nov-14 11:42N 51°15' E 004°23'0 0.0
2017-Nov-14 11:24N 51°15' E 004°23'0 0.0
2017-Nov-14 11:00N 51°15' E 004°23'0 0.0
2017-Nov-14 10:27N 51°15' E 004°23'0 0.0
2017-Nov-14 10:00N 51°15' E 004°23'0 0.0
2017-Nov-14 09:30N 51°15' E 004°23'0 0.0
2017-Nov-14 09:00N 51°15' E 004°23'0 0.0
2017-Nov-14 08:30N 51°15' E 004°23'0 0.0
2017-Nov-14 08:00N 51°15' E 004°23'0 0.0
2017-Nov-14 07:30N 51°15' E 004°23'0 0.0
2017-Nov-14 07:00N 51°15' E 004°23'0 0.0
2017-Nov-14 06:24N 51°15' E 004°23'0 0.0
2017-Nov-14 06:00N 51°15' E 004°23'0 0.0
2017-Nov-14 05:24N 51°15' E 004°23'0 0.0
2017-Nov-14 05:00N 51°15' E 004°23'0 0.0
2017-Nov-14 04:30N 51°15' E 004°23'0 0.0
2017-Nov-14 04:00N 51°15' E 004°23'0 0.0
2017-Nov-14 03:30N 51°15' E 004°23'0 0.0
2017-Nov-14 03:00N 51°15' E 004°23'0 0.0
2017-Nov-14 02:30N 51°15' E 004°23'0 0.0
2017-Nov-14 02:00N 51°15' E 004°23'0 0.0
2017-Nov-14 01:30N 51°15' E 004°23'0 0.0
2017-Nov-14 01:00N 51°15' E 004°23'0 0.0
2017-Nov-14 00:30N 51°15' E 004°23'0 0.0
2017-Nov-14 00:00N 51°15' E 004°23'0 0.0
2017-Nov-13 23:27N 51°15' E 004°23'0 0.0
2017-Nov-13 23:00N 51°15' E 004°23'0 0.0
2017-Nov-13 22:30N 51°15' E 004°23'0 0.0
2017-Nov-13 22:00N 51°15' E 004°23'1 0.0
2017-Nov-13 02:00N 51°16' E 004°22'0 0.0
2017-Nov-13 01:27N 51°16' E 004°22'0 0.0
2017-Nov-13 01:00N 51°16' E 004°22'0 0.0
2017-Nov-13 00:27N 51°16' E 004°22'0 0.0
2017-Nov-13 00:00N 51°16' E 004°22'0 0.0
2017-Nov-12 23:30N 51°16' E 004°22'0 0.0
2017-Nov-12 22:54N 51°16' E 004°22'0 0.0
2017-Nov-12 22:30N 51°16' E 004°22'0 0.0
2017-Nov-12 22:00N 51°16' E 004°22'0 0.0
2017-Nov-12 21:30N 51°16' E 004°22'0 0.0
2017-Nov-12 20:57N 51°16' E 004°22'0 0.0
2017-Nov-12 20:30N 51°16' E 004°22'0 0.0
2017-Nov-12 20:00N 51°16' E 004°22'0 0.0
2017-Nov-12 19:27N 51°16' E 004°22'0 0.0
2017-Nov-12 18:51N 51°16' E 004°22'0 0.0
2017-Nov-12 18:24N 51°16' E 004°22'0 0.0
2017-Nov-12 17:54N 51°16' E 004°22'0 0.0
2017-Nov-12 17:30N 51°16' E 004°22'0 0.0
2017-Nov-12 16:54N 51°16' E 004°22'0 0.0
2017-Nov-12 16:30N 51°16' E 004°22'0 0.0
2017-Nov-12 16:00N 51°16' E 004°22'0 0.0
2017-Nov-12 15:30N 51°16' E 004°22'0 0.0
2017-Nov-12 14:54N 51°16' E 004°22'0 0.0
2017-Nov-12 14:27N 51°16' E 004°22'0 0.0
2017-Nov-12 14:00N 51°16' E 004°22'0 0.0
2017-Nov-12 13:27N 51°16' E 004°22'0 0.0
2017-Nov-12 13:00N 51°16' E 004°22'0 0.0
2017-Nov-12 12:30N 51°16' E 004°22'0 0.0
2017-Nov-12 11:57N 51°16' E 004°22'0 0.0
2017-Nov-12 11:27N 51°16' E 004°22'0 0.0
2017-Nov-12 11:00N 51°16' E 004°22'0 0.0
2017-Nov-12 10:30N 51°16' E 004°22'0 0.0
2017-Nov-12 10:00N 51°16' E 004°22'0 0.0
2017-Nov-12 09:24N 51°16' E 004°22'0 0.0
2017-Nov-12 08:57N 51°16' E 004°22'0 0.0
2017-Nov-12 08:30N 51°16' E 004°22'0 0.0
2017-Nov-12 08:00N 51°16' E 004°22'0 0.0
2017-Nov-12 07:24N 51°16' E 004°22'0 0.0
2017-Nov-12 06:57N 51°16' E 004°22'0 0.0
2017-Nov-12 06:27N 51°16' E 004°22'0 0.0
2017-Nov-12 06:00N 51°16' E 004°22'0 0.0
2017-Nov-12 05:27N 51°16' E 004°22'0 0.0
2017-Nov-12 05:00N 51°16' E 004°22'0 0.0
2017-Nov-12 04:18N 51°16' E 004°22'0 0.0
2017-Nov-12 04:00N 51°16' E 004°22'0 0.0
2017-Nov-12 03:30N 51°16' E 004°22'0 0.0
2017-Nov-12 03:00N 51°16' E 004°22'0 0.0
2017-Nov-12 02:27N 51°16' E 004°22'1 2.1
2017-Nov-12 02:00N 51°16' E 004°21'3 5.4
2017-Nov-12 01:30N 51°19' E 004°19'1 2.4
2017-Nov-12 01:00N 51°20' E 004°18'0 0.0
2017-Nov-12 00:21N 51°20' E 004°18'0 0.0
2017-Nov-11 23:51N 51°20' E 004°18'0 0.0
2017-Nov-11 23:21N 51°20' E 004°18'0 0.0
2017-Nov-11 23:00N 51°20' E 004°18'0 0.0
2017-Nov-11 22:30N 51°20' E 004°18'0 0.0
2017-Nov-11 21:54N 51°20' E 004°18'0 0.0
2017-Nov-11 21:30N 51°20' E 004°18'0 0.0
2017-Nov-11 21:00N 51°20' E 004°18'0 0.0
2017-Nov-11 20:24N 51°20' E 004°18'0 0.0
2017-Nov-11 19:54N 51°20' E 004°18'0 0.0
2017-Nov-11 19:27N 51°20' E 004°18'0 0.0
2017-Nov-11 19:00N 51°20' E 004°18'0 0.0
2017-Nov-11 18:30N 51°20' E 004°18'0 0.7
2017-Nov-11 18:00N 51°19' E 004°19'3 6.0
2017-Nov-11 17:30N 51°17' E 004°21'1 2.9
2017-Nov-11 17:00N 51°16' E 004°22'0 0.0
2017-Nov-11 16:24N 51°16' E 004°22'0 0.0
2017-Nov-11 16:00N 51°16' E 004°22'0 0.0
2017-Nov-11 15:27N 51°16' E 004°22'0 0.0
2017-Nov-11 14:57N 51°16' E 004°22'0 0.0
2017-Nov-11 14:30N 51°16' E 004°22'0 0.0
2017-Nov-11 14:00N 51°16' E 004°22'0 0.0
2017-Nov-11 13:30N 51°16' E 004°22'0 0.0
2017-Nov-11 13:00N 51°16' E 004°22'0 0.0
2017-Nov-11 12:30N 51°16' E 004°22'0 0.0
2017-Nov-11 12:00N 51°16' E 004°22'0 0.0
2017-Nov-11 11:30N 51°16' E 004°22'0 0.0
2017-Nov-11 10:51N 51°16' E 004°22'0 0.0
2017-Nov-11 10:27N 51°16' E 004°22'0 0.0
2017-Nov-11 09:57N 51°16' E 004°22'0 0.1
2017-Nov-11 09:31N 51°16' E 004°22'2 4.1
2017-Nov-11 09:01N 51°17' E 004°20'2 3.9
2017-Nov-11 08:31N 51°19' E 004°19'0 0.2
2017-Nov-11 07:51N 51°19' E 004°18'0 0.0
2017-Nov-11 05:54N 51°19' E 004°18'0 0.0
2017-Nov-11 03:03N 51°19' E 004°18'0 0.0
2017-Nov-11 03:00N 51°19' E 004°18'0 0.0
2017-Nov-10 22:03N 51°19' E 004°18'0 0.0
2017-Nov-10 15:15N 51°19' E 004°18'0 0.0
2017-Nov-10 14:51N 51°19' E 004°18'0 0.0
2017-Nov-10 14:27N 51°19' E 004°18'0 0.0
2017-Nov-10 13:03N 51°19' E 004°18'0 0.1
2017-Nov-10 12:57N 51°19' E 004°18'0 0.0
2017-Nov-10 11:03N 51°19' E 004°18'0 0.0
2017-Nov-10 10:48N 51°19' E 004°18'0 0.0
2017-Nov-10 10:18N 51°19' E 004°18'0 0.0
2017-Nov-10 09:57N 51°19' E 004°18'0 0.0
2017-Nov-10 07:51N 51°19' E 004°18'0 0.0
2017-Nov-10 05:57N 51°19' E 004°18'0 0.0
2017-Nov-10 05:27N 51°19' E 004°18'0 0.0
2017-Nov-10 04:21N 51°19' E 004°18'0 0.0
2017-Nov-10 03:45N 51°19' E 004°18'0 0.0
2017-Nov-10 03:27N 51°19' E 004°18'0 0.0
2017-Nov-10 02:51N 51°19' E 004°18'0 0.0
2017-Nov-10 02:27N 51°19' E 004°18'0 0.0
2017-Nov-10 01:51N 51°19' E 004°18'0 0.0
2017-Nov-10 01:27N 51°19' E 004°18'0 0.0
2017-Nov-10 00:57N 51°19' E 004°18'0 0.0
2017-Nov-10 00:15N 51°19' E 004°18'0 0.0
2017-Nov-09 20:51N 51°19' E 004°18'0 0.0
2017-Nov-09 20:27N 51°19' E 004°18'0 0.0
2017-Nov-09 19:03N 51°19' E 004°18'0 0.0
2017-Nov-09 18:45N 51°19' E 004°18'0 0.0
2017-Nov-09 18:27N 51°19' E 004°18'0 0.0
2017-Nov-09 17:48N 51°19' E 004°18'0 0.0
2017-Nov-09 17:27N 51°19' E 004°18'0 0.0
2017-Nov-09 16:51N 51°19' E 004°18'0 0.0
2017-Nov-09 16:24N 51°19' E 004°18'0 0.0
2017-Nov-09 15:24N 51°19' E 004°18'0 0.0
2017-Nov-09 13:57N 51°19' E 004°18'0 0.0
2017-Nov-09 13:27N 51°19' E 004°18'0 0.0
2017-Nov-09 12:51N 51°19' E 004°18'0 0.0
2017-Nov-09 11:36N 51°19' E 004°18'0 0.0
2017-Nov-09 11:27N 51°19' E 004°18'0 0.0
2017-Nov-09 10:15N 51°19' E 004°18'0 0.0
2017-Nov-09 04:18N 51°19' E 004°18'0 0.0
2017-Nov-09 03:42N 51°19' E 004°18'0 0.0
2017-Nov-09 03:30N 51°19' E 004°18'2 3.2
2017-Nov-09 03:00N 51°20' E 004°18'1 1.1
2017-Nov-09 02:30N 51°21' E 004°17'0 0.0
2017-Nov-09 02:00N 51°21' E 004°17'2 3.5
2017-Nov-09 01:30N 51°21' E 004°14'3 6.7
2017-Nov-09 01:00N 51°23' E 004°10'510.0
2017-Nov-09 00:30N 51°24' E 004°02'  

Dump ship's entire track history